sensor_id;sensor_type;location;lat;lon;timestamp;temperature;humidity
78315;SHT31;67569;52.080;4.662;2023-02-04T00:02:06;8.25;87.08
78315;SHT31;67569;52.080;4.662;2023-02-04T00:05:01;8.26;86.93
78315;SHT31;67569;52.080;4.662;2023-02-04T00:07:46;8.28;87.07
78315;SHT31;67569;52.080;4.662;2023-02-04T00:10:30;8.28;87.23
78315;SHT31;67569;52.080;4.662;2023-02-04T00:13:14;8.25;87.00
78315;SHT31;67569;52.080;4.662;2023-02-04T00:16:02;8.23;87.32
78315;SHT31;67569;52.080;4.662;2023-02-04T00:18:45;8.22;87.32
78315;SHT31;67569;52.080;4.662;2023-02-04T00:21:29;8.19;87.25
78315;SHT31;67569;52.080;4.662;2023-02-04T00:24:13;8.20;87.22
78315;SHT31;67569;52.080;4.662;2023-02-04T00:26:57;8.16;87.43
78315;SHT31;67569;52.080;4.662;2023-02-04T00:29:42;8.16;87.73
78315;SHT31;67569;52.080;4.662;2023-02-04T00:32:26;8.12;87.65
78315;SHT31;67569;52.080;4.662;2023-02-04T00:35:13;8.12;87.68
78315;SHT31;67569;52.080;4.662;2023-02-04T00:37:57;8.12;87.64
78315;SHT31;67569;52.080;4.662;2023-02-04T00:40:41;8.12;87.73
78315;SHT31;67569;52.080;4.662;2023-02-04T00:43:25;8.10;87.80
78315;SHT31;67569;52.080;4.662;2023-02-04T00:46:09;8.10;87.87
78315;SHT31;67569;52.080;4.662;2023-02-04T00:48:53;8.07;87.98
78315;SHT31;67569;52.080;4.662;2023-02-04T00:51:37;8.09;87.87
78315;SHT31;67569;52.080;4.662;2023-02-04T00:54:22;8.06;87.87
78315;SHT31;67569;52.080;4.662;2023-02-04T00:57:06;8.06;87.92
78315;SHT31;67569;52.080;4.662;2023-02-04T00:59:50;8.07;87.93
78315;SHT31;67569;52.080;4.662;2023-02-04T01:02:34;8.05;87.98
78315;SHT31;67569;52.080;4.662;2023-02-04T01:05:18;8.06;88.16
78315;SHT31;67569;52.080;4.662;2023-02-04T01:08:02;8.02;88.07
78315;SHT31;67569;52.080;4.662;2023-02-04T01:10:46;8.03;88.31
78315;SHT31;67569;52.080;4.662;2023-02-04T01:13:30;8.02;87.91
78315;SHT31;67569;52.080;4.662;2023-02-04T01:16:14;8.06;88.11
78315;SHT31;67569;52.080;4.662;2023-02-04T01:18:58;8.05;87.83
78315;SHT31;67569;52.080;4.662;2023-02-04T01:21:42;8.01;88.13
78315;SHT31;67569;52.080;4.662;2023-02-04T01:24:26;8.02;87.84
78315;SHT31;67569;52.080;4.662;2023-02-04T01:27:11;8.02;87.85
78315;SHT31;67569;52.080;4.662;2023-02-04T01:29:54;8.03;87.85
78315;SHT31;67569;52.080;4.662;2023-02-04T01:32:38;8.03;87.96
78315;SHT31;67569;52.080;4.662;2023-02-04T01:35:22;8.06;88.14
78315;SHT31;67569;52.080;4.662;2023-02-04T01:38:07;8.02;88.00
78315;SHT31;67569;52.080;4.662;2023-02-04T01:40:51;8.02;88.05
78315;SHT31;67569;52.080;4.662;2023-02-04T01:43:35;8.06;87.75
78315;SHT31;67569;52.080;4.662;2023-02-04T01:46:19;8.02;87.64
78315;SHT31;67569;52.080;4.662;2023-02-04T01:49:04;8.02;87.96
78315;SHT31;67569;52.080;4.662;2023-02-04T01:51:49;7.99;88.02
78315;SHT31;67569;52.080;4.662;2023-02-04T01:54:32;8.01;88.15
78315;SHT31;67569;52.080;4.662;2023-02-04T01:57:16;7.99;88.20
78315;SHT31;67569;52.080;4.662;2023-02-04T02:00:00;7.98;88.26
78315;SHT31;67569;52.080;4.662;2023-02-04T02:02:46;7.98;88.25
78315;SHT31;67569;52.080;4.662;2023-02-04T02:05:31;7.99;88.24
78315;SHT31;67569;52.080;4.662;2023-02-04T02:08:18;8.02;88.46
78315;SHT31;67569;52.080;4.662;2023-02-04T02:11:02;8.02;88.17
78315;SHT31;67569;52.080;4.662;2023-02-04T02:13:46;8.02;87.85
78315;SHT31;67569;52.080;4.662;2023-02-04T02:16:30;8.02;87.94
78315;SHT31;67569;52.080;4.662;2023-02-04T02:19:15;8.03;87.85
78315;SHT31;67569;52.080;4.662;2023-02-04T02:22:12;8.03;87.88
78315;SHT31;67569;52.080;4.662;2023-02-04T02:24:56;8.06;87.96
78315;SHT31;67569;52.080;4.662;2023-02-04T02:27:41;8.07;87.94
78315;SHT31;67569;52.080;4.662;2023-02-04T02:30:26;8.07;87.93
78315;SHT31;67569;52.080;4.662;2023-02-04T02:33:12;8.06;87.86
78315;SHT31;67569;52.080;4.662;2023-02-04T02:35:59;8.06;87.70
78315;SHT31;67569;52.080;4.662;2023-02-04T02:38:44;8.09;87.77
78315;SHT31;67569;52.080;4.662;2023-02-04T02:41:28;8.09;87.80
78315;SHT31;67569;52.080;4.662;2023-02-04T02:44:12;8.07;87.64
78315;SHT31;67569;52.080;4.662;2023-02-04T02:46:57;8.07;87.68
78315;SHT31;67569;52.080;4.662;2023-02-04T02:49:41;8.07;87.88
78315;SHT31;67569;52.080;4.662;2023-02-04T02:52:26;8.07;87.90
78315;SHT31;67569;52.080;4.662;2023-02-04T02:55:14;8.05;87.87
78315;SHT31;67569;52.080;4.662;2023-02-04T02:57:58;8.06;87.70
78315;SHT31;67569;52.080;4.662;2023-02-04T03:00:42;8.07;87.71
78315;SHT31;67569;52.080;4.662;2023-02-04T03:03:27;8.05;87.68
78315;SHT31;67569;52.080;4.662;2023-02-04T03:06:13;8.06;88.06
78315;SHT31;67569;52.080;4.662;2023-02-04T03:08:58;8.07;87.89
78315;SHT31;67569;52.080;4.662;2023-02-04T03:11:42;8.05;87.79
78315;SHT31;67569;52.080;4.662;2023-02-04T03:14:26;8.03;87.83
78315;SHT31;67569;52.080;4.662;2023-02-04T03:17:11;8.03;87.74
78315;SHT31;67569;52.080;4.662;2023-02-04T03:19:55;8.02;87.75
78315;SHT31;67569;52.080;4.662;2023-02-04T03:22:39;8.03;87.80
78315;SHT31;67569;52.080;4.662;2023-02-04T03:25:23;8.02;88.02
78315;SHT31;67569;52.080;4.662;2023-02-04T03:28:09;8.01;88.14
78315;SHT31;67569;52.080;4.662;2023-02-04T03:30:53;8.02;88.09
78315;SHT31;67569;52.080;4.662;2023-02-04T03:33:38;8.02;88.02
78315;SHT31;67569;52.080;4.662;2023-02-04T03:36:22;7.99;88.18
78315;SHT31;67569;52.080;4.662;2023-02-04T03:39:06;8.01;87.80
78315;SHT31;67569;52.080;4.662;2023-02-04T03:41:50;8.01;87.87
78315;SHT31;67569;52.080;4.662;2023-02-04T03:44:34;7.99;87.89
78315;SHT31;67569;52.080;4.662;2023-02-04T03:47:18;7.98;87.90
78315;SHT31;67569;52.080;4.662;2023-02-04T03:50:03;7.93;87.89
78315;SHT31;67569;52.080;4.662;2023-02-04T03:52:47;7.99;88.09
78315;SHT31;67569;52.080;4.662;2023-02-04T03:55:32;7.99;88.05
78315;SHT31;67569;52.080;4.662;2023-02-04T03:58:16;7.98;87.91
78315;SHT31;67569;52.080;4.662;2023-02-04T04:01:00;7.98;88.28
78315;SHT31;67569;52.080;4.662;2023-02-04T04:03:44;7.95;88.05
78315;SHT31;67569;52.080;4.662;2023-02-04T04:06:28;7.98;88.15
78315;SHT31;67569;52.080;4.662;2023-02-04T04:09:12;8.01;88.43
78315;SHT31;67569;52.080;4.662;2023-02-04T04:11:56;7.98;88.25
78315;SHT31;67569;52.080;4.662;2023-02-04T04:14:43;7.98;88.19
78315;SHT31;67569;52.080;4.662;2023-02-04T04:17:27;7.96;88.20
78315;SHT31;67569;52.080;4.662;2023-02-04T04:20:11;7.98;88.01
78315;SHT31;67569;52.080;4.662;2023-02-04T04:22:55;8.02;88.16
78315;SHT31;67569;52.080;4.662;2023-02-04T04:25:39;8.01;88.25
78315;SHT31;67569;52.080;4.662;2023-02-04T04:28:23;7.99;88.21
78315;SHT31;67569;52.080;4.662;2023-02-04T04:31:07;8.01;88.31
78315;SHT31;67569;52.080;4.662;2023-02-04T04:33:51;8.03;88.05
78315;SHT31;67569;52.080;4.662;2023-02-04T04:36:36;8.06;87.97
78315;SHT31;67569;52.080;4.662;2023-02-04T04:39:20;8.05;88.04
78315;SHT31;67569;52.080;4.662;2023-02-04T04:42:04;8.07;87.92
78315;SHT31;67569;52.080;4.662;2023-02-04T04:44:48;8.07;87.93
78315;SHT31;67569;52.080;4.662;2023-02-04T04:47:32;8.06;87.84
78315;SHT31;67569;52.080;4.662;2023-02-04T04:50:16;8.07;88.14
78315;SHT31;67569;52.080;4.662;2023-02-04T04:53:00;8.06;88.27
78315;SHT31;67569;52.080;4.662;2023-02-04T04:55:44;8.06;88.25
78315;SHT31;67569;52.080;4.662;2023-02-04T04:58:28;8.05;88.13
78315;SHT31;67569;52.080;4.662;2023-02-04T05:01:12;8.05;88.38
78315;SHT31;67569;52.080;4.662;2023-02-04T05:03:56;8.05;88.42
78315;SHT31;67569;52.080;4.662;2023-02-04T05:06:43;8.05;88.50
78315;SHT31;67569;52.080;4.662;2023-02-04T05:09:28;8.03;88.56
78315;SHT31;67569;52.080;4.662;2023-02-04T05:12:12;8.01;88.65
78315;SHT31;67569;52.080;4.662;2023-02-04T05:14:56;7.99;88.80
78315;SHT31;67569;52.080;4.662;2023-02-04T05:17:43;7.99;89.01
78315;SHT31;67569;52.080;4.662;2023-02-04T05:20:27;7.96;89.00
78315;SHT31;67569;52.080;4.662;2023-02-04T05:23:11;7.98;88.92
78315;SHT31;67569;52.080;4.662;2023-02-04T05:25:55;7.93;89.00
78315;SHT31;67569;52.080;4.662;2023-02-04T05:28:39;7.93;89.05
78315;SHT31;67569;52.080;4.662;2023-02-04T05:31:23;7.93;89.06
78315;SHT31;67569;52.080;4.662;2023-02-04T05:34:07;7.92;89.33
78315;SHT31;67569;52.080;4.662;2023-02-04T05:36:51;7.93;89.34
78315;SHT31;67569;52.080;4.662;2023-02-04T05:39:35;7.91;89.18
78315;SHT31;67569;52.080;4.662;2023-02-04T05:42:19;7.93;89.16
78315;SHT31;67569;52.080;4.662;2023-02-04T05:45:04;7.95;89.22
78315;SHT31;67569;52.080;4.662;2023-02-04T05:47:47;7.93;89.07
78315;SHT31;67569;52.080;4.662;2023-02-04T05:50:31;7.95;89.00
78315;SHT31;67569;52.080;4.662;2023-02-04T05:53:15;7.96;88.87
78315;SHT31;67569;52.080;4.662;2023-02-04T05:56:00;7.98;88.84
78315;SHT31;67569;52.080;4.662;2023-02-04T05:58:44;7.98;88.77
78315;SHT31;67569;52.080;4.662;2023-02-04T06:01:28;7.98;88.88
78315;SHT31;67569;52.080;4.662;2023-02-04T06:04:12;7.99;88.88
78315;SHT31;67569;52.080;4.662;2023-02-04T06:06:58;7.98;88.92
78315;SHT31;67569;52.080;4.662;2023-02-04T06:09:42;7.95;89.08
78315;SHT31;67569;52.080;4.662;2023-02-04T06:12:26;7.92;89.16
78315;SHT31;67569;52.080;4.662;2023-02-04T06:15:10;7.91;89.16
78315;SHT31;67569;52.080;4.662;2023-02-04T06:17:55;7.91;89.32
78315;SHT31;67569;52.080;4.662;2023-02-04T06:20:44;7.89;89.22
78315;SHT31;67569;52.080;4.662;2023-02-04T06:23:27;7.93;89.25
78315;SHT31;67569;52.080;4.662;2023-02-04T06:26:12;7.95;89.01
78315;SHT31;67569;52.080;4.662;2023-02-04T06:28:56;7.95;88.90
78315;SHT31;67569;52.080;4.662;2023-02-04T06:31:44;7.95;88.86
78315;SHT31;67569;52.080;4.662;2023-02-04T06:34:27;7.98;88.72
78315;SHT31;67569;52.080;4.662;2023-02-04T06:37:11;7.99;88.92
78315;SHT31;67569;52.080;4.662;2023-02-04T06:39:56;7.99;89.03
78315;SHT31;67569;52.080;4.662;2023-02-04T06:42:41;8.01;89.11
78315;SHT31;67569;52.080;4.662;2023-02-04T06:45:25;7.98;89.15
78315;SHT31;67569;52.080;4.662;2023-02-04T06:48:09;7.96;88.89
78315;SHT31;67569;52.080;4.662;2023-02-04T06:50:53;7.98;89.03
78315;SHT31;67569;52.080;4.662;2023-02-04T06:53:37;7.98;89.11
78315;SHT31;67569;52.080;4.662;2023-02-04T06:56:21;8.01;89.43
78315;SHT31;67569;52.080;4.662;2023-02-04T06:59:05;7.96;89.08
78315;SHT31;67569;52.080;4.662;2023-02-04T07:01:49;7.95;89.28
78315;SHT31;67569;52.080;4.662;2023-02-04T07:04:33;7.98;89.05
78315;SHT31;67569;52.080;4.662;2023-02-04T07:07:18;7.99;89.21
78315;SHT31;67569;52.080;4.662;2023-02-04T07:10:02;7.98;89.20
78315;SHT31;67569;52.080;4.662;2023-02-04T07:12:46;7.98;89.41
78315;SHT31;67569;52.080;4.662;2023-02-04T07:15:30;7.99;89.31
78315;SHT31;67569;52.080;4.662;2023-02-04T07:18:14;8.01;89.29
78315;SHT31;67569;52.080;4.662;2023-02-04T07:20:59;7.99;89.39
78315;SHT31;67569;52.080;4.662;2023-02-04T07:23:43;7.98;89.26
78315;SHT31;67569;52.080;4.662;2023-02-04T07:26:27;7.99;89.18
78315;SHT31;67569;52.080;4.662;2023-02-04T07:29:11;7.98;89.45
78315;SHT31;67569;52.080;4.662;2023-02-04T07:31:55;7.99;89.20
78315;SHT31;67569;52.080;4.662;2023-02-04T07:34:39;8.02;89.08
78315;SHT31;67569;52.080;4.662;2023-02-04T07:37:25;8.03;89.00
78315;SHT31;67569;52.080;4.662;2023-02-04T07:40:10;8.05;89.00
78315;SHT31;67569;52.080;4.662;2023-02-04T07:42:55;8.06;89.07
78315;SHT31;67569;52.080;4.662;2023-02-04T07:45:39;8.05;89.34
78315;SHT31;67569;52.080;4.662;2023-02-04T07:48:23;8.07;89.18
78315;SHT31;67569;52.080;4.662;2023-02-04T07:51:08;8.10;88.92
78315;SHT31;67569;52.080;4.662;2023-02-04T07:53:53;8.13;88.75
78315;SHT31;67569;52.080;4.662;2023-02-04T07:56:37;8.13;88.96
78315;SHT31;67569;52.080;4.662;2023-02-04T07:59:21;8.14;88.95
78315;SHT31;67569;52.080;4.662;2023-02-04T08:02:05;8.13;89.07
78315;SHT31;67569;52.080;4.662;2023-02-04T08:04:49;8.17;88.78
78315;SHT31;67569;52.080;4.662;2023-02-04T08:07:33;8.20;88.95
78315;SHT31;67569;52.080;4.662;2023-02-04T08:10:17;8.22;89.05
78315;SHT31;67569;52.080;4.662;2023-02-04T08:13:01;8.23;88.92
78315;SHT31;67569;52.080;4.662;2023-02-04T08:15:45;8.25;88.87
78315;SHT31;67569;52.080;4.662;2023-02-04T08:18:29;8.28;88.79
78315;SHT31;67569;52.080;4.662;2023-02-04T08:21:13;8.30;88.77
78315;SHT31;67569;52.080;4.662;2023-02-04T08:23:57;8.37;89.01
78315;SHT31;67569;52.080;4.662;2023-02-04T08:26:41;8.37;88.77
78315;SHT31;67569;52.080;4.662;2023-02-04T08:29:26;8.40;88.44
78315;SHT31;67569;52.080;4.662;2023-02-04T08:32:13;8.44;88.71
78315;SHT31;67569;52.080;4.662;2023-02-04T08:34:58;8.46;88.92
78315;SHT31;67569;52.080;4.662;2023-02-04T08:37:42;8.46;88.88
78315;SHT31;67569;52.080;4.662;2023-02-04T08:40:26;8.47;88.92
78315;SHT31;67569;52.080;4.662;2023-02-04T08:43:13;8.50;89.11
78315;SHT31;67569;52.080;4.662;2023-02-04T08:45:57;8.53;89.05
78315;SHT31;67569;52.080;4.662;2023-02-04T08:48:41;8.56;88.81
78315;SHT31;67569;52.080;4.662;2023-02-04T08:51:25;8.61;88.74
78315;SHT31;67569;52.080;4.662;2023-02-04T08:54:09;8.68;88.41
78315;SHT31;67569;52.080;4.662;2023-02-04T08:56:53;8.71;88.30
78315;SHT31;67569;52.080;4.662;2023-02-04T08:59:37;8.71;88.59
78315;SHT31;67569;52.080;4.662;2023-02-04T09:02:21;8.74;88.39
78315;SHT31;67569;52.080;4.662;2023-02-04T09:05:06;8.78;88.68
78315;SHT31;67569;52.080;4.662;2023-02-04T09:07:50;8.79;88.12
78315;SHT31;67569;52.080;4.662;2023-02-04T09:10:34;8.81;88.17
78315;SHT31;67569;52.080;4.662;2023-02-04T09:13:18;8.87;88.27
78315;SHT31;67569;52.080;4.662;2023-02-04T09:16:02;8.87;88.25
78315;SHT31;67569;52.080;4.662;2023-02-04T09:18:46;8.92;87.99
78315;SHT31;67569;52.080;4.662;2023-02-04T09:21:31;8.93;88.05
78315;SHT31;67569;52.080;4.662;2023-02-04T09:24:16;8.98;88.34
78315;SHT31;67569;52.080;4.662;2023-02-04T09:26:59;8.99;88.52
78315;SHT31;67569;52.080;4.662;2023-02-04T09:29:43;9.01;88.25
78315;SHT31;67569;52.080;4.662;2023-02-04T09:32:27;9.02;88.15
78315;SHT31;67569;52.080;4.662;2023-02-04T09:35:11;9.05;88.15
78315;SHT31;67569;52.080;4.662;2023-02-04T09:37:55;9.08;87.93
78315;SHT31;67569;52.080;4.662;2023-02-04T09:40:40;9.11;87.87
78315;SHT31;67569;52.080;4.662;2023-02-04T09:43:26;9.15;87.55
78315;SHT31;67569;52.080;4.662;2023-02-04T09:46:23;9.20;87.19
78315;SHT31;67569;52.080;4.662;2023-02-04T09:49:07;9.25;87.08
78315;SHT31;67569;52.080;4.662;2023-02-04T09:51:53;9.26;86.77
78315;SHT31;67569;52.080;4.662;2023-02-04T09:54:38;9.26;86.72
78315;SHT31;67569;52.080;4.662;2023-02-04T09:57:22;9.29;86.58
78315;SHT31;67569;52.080;4.662;2023-02-04T10:00:25;9.26;86.40
78315;SHT31;67569;52.080;4.662;2023-02-04T10:03:16;9.26;86.31
78315;SHT31;67569;52.080;4.662;2023-02-04T10:06:01;9.26;85.61
78315;SHT31;67569;52.080;4.662;2023-02-04T10:08:45;9.26;85.92
78315;SHT31;67569;52.080;4.662;2023-02-04T10:11:31;9.26;85.82
78315;SHT31;67569;52.080;4.662;2023-02-04T10:14:18;9.23;85.39
78315;SHT31;67569;52.080;4.662;2023-02-04T10:17:03;9.25;85.80
78315;SHT31;67569;52.080;4.662;2023-02-04T10:19:47;9.20;84.71
78315;SHT31;67569;52.080;4.662;2023-02-04T10:22:31;9.16;84.38
78315;SHT31;67569;52.080;4.662;2023-02-04T10:25:17;9.11;84.40
78315;SHT31;67569;52.080;4.662;2023-02-04T10:28:02;9.08;84.73
78315;SHT31;67569;52.080;4.662;2023-02-04T10:30:46;9.12;85.54
78315;SHT31;67569;52.080;4.662;2023-02-04T10:33:30;9.11;85.93
78315;SHT31;67569;52.080;4.662;2023-02-04T10:36:15;9.08;85.56
78315;SHT31;67569;52.080;4.662;2023-02-04T10:39:00;9.11;85.47
78315;SHT31;67569;52.080;4.662;2023-02-04T10:41:48;9.09;86.14
78315;SHT31;67569;52.080;4.662;2023-02-04T10:44:33;9.12;85.93
78315;SHT31;67569;52.080;4.662;2023-02-04T10:47:23;9.16;86.37
78315;SHT31;67569;52.080;4.662;2023-02-04T10:50:16;9.18;85.95
78315;SHT31;67569;52.080;4.662;2023-02-04T10:53:01;9.19;85.20
78315;SHT31;67569;52.080;4.662;2023-02-04T10:56:05;9.26;85.55
78315;SHT31;67569;52.080;4.662;2023-02-04T10:58:57;9.25;85.72
78315;SHT31;67569;52.080;4.662;2023-02-04T11:01:41;9.30;85.49
78315;SHT31;67569;52.080;4.662;2023-02-04T11:04:25;9.32;85.51
78315;SHT31;67569;52.080;4.662;2023-02-04T11:07:10;9.32;85.43
78315;SHT31;67569;52.080;4.662;2023-02-04T11:09:55;9.36;85.00
78315;SHT31;67569;52.080;4.662;2023-02-04T11:12:44;9.40;84.52
78315;SHT31;67569;52.080;4.662;2023-02-04T11:15:37;9.43;84.60
78315;SHT31;67569;52.080;4.662;2023-02-04T11:21:12;9.53;85.66
78315;SHT31;67569;52.080;4.662;2023-02-04T11:27:06;9.61;85.22
78315;SHT31;67569;52.080;4.662;2023-02-04T11:29:51;9.67;85.49
78315;SHT31;67569;52.080;4.662;2023-02-04T11:32:35;9.63;84.95
78315;SHT31;67569;52.080;4.662;2023-02-04T11:35:25;9.63;84.50
78315;SHT31;67569;52.080;4.662;2023-02-04T11:38:23;9.60;84.10
78315;SHT31;67569;52.080;4.662;2023-02-04T11:41:11;9.57;84.63
78315;SHT31;67569;52.080;4.662;2023-02-04T11:43:57;9.54;84.48
78315;SHT31;67569;52.080;4.662;2023-02-04T11:46:41;9.60;84.66
78315;SHT31;67569;52.080;4.662;2023-02-04T11:49:26;9.60;84.05
78315;SHT31;67569;52.080;4.662;2023-02-04T11:52:11;9.58;84.14
78315;SHT31;67569;52.080;4.662;2023-02-04T11:54:57;9.60;84.27
78315;SHT31;67569;52.080;4.662;2023-02-04T11:57:44;9.60;84.30
78315;SHT31;67569;52.080;4.662;2023-02-04T12:00:34;9.56;83.43
78315;SHT31;67569;52.080;4.662;2023-02-04T12:03:25;9.50;83.61
78315;SHT31;67569;52.080;4.662;2023-02-04T12:06:09;9.50;83.27
78315;SHT31;67569;52.080;4.662;2023-02-04T12:09:04;9.48;83.29
78315;SHT31;67569;52.080;4.662;2023-02-04T12:11:58;9.54;83.52
78315;SHT31;67569;52.080;4.662;2023-02-04T12:14:42;9.61;83.85
78315;SHT31;67569;52.080;4.662;2023-02-04T12:17:26;9.60;84.79
78315;SHT31;67569;52.080;4.662;2023-02-04T12:20:11;9.61;83.81
78315;SHT31;67569;52.080;4.662;2023-02-04T12:22:56;9.61;84.53
78315;SHT31;67569;52.080;4.662;2023-02-04T12:25:40;9.61;84.60
78315;SHT31;67569;52.080;4.662;2023-02-04T12:28:24;9.58;84.72
78315;SHT31;67569;52.080;4.662;2023-02-04T12:31:08;9.58;84.95
78315;SHT31;67569;52.080;4.662;2023-02-04T12:33:52;9.60;85.08
78315;SHT31;67569;52.080;4.662;2023-02-04T12:36:37;9.58;85.12
78315;SHT31;67569;52.080;4.662;2023-02-04T12:39:21;9.58;85.89
78315;SHT31;67569;52.080;4.662;2023-02-04T12:42:05;9.56;86.01
78315;SHT31;67569;52.080;4.662;2023-02-04T12:44:49;9.56;84.79
78315;SHT31;67569;52.080;4.662;2023-02-04T12:47:33;9.58;85.48
78315;SHT31;67569;52.080;4.662;2023-02-04T12:50:17;9.61;85.44
78315;SHT31;67569;52.080;4.662;2023-02-04T12:53:08;9.56;84.64
78315;SHT31;67569;52.080;4.662;2023-02-04T12:55:52;9.51;84.88
78315;SHT31;67569;52.080;4.662;2023-02-04T12:58:36;9.48;85.22
78315;SHT31;67569;52.080;4.662;2023-02-04T13:01:20;9.44;84.56
78315;SHT31;67569;52.080;4.662;2023-02-04T13:04:04;9.43;84.85
78315;SHT31;67569;52.080;4.662;2023-02-04T13:06:48;9.42;84.77
78315;SHT31;67569;52.080;4.662;2023-02-04T13:16:05;9.39;84.70
78315;SHT31;67569;52.080;4.662;2023-02-04T13:18:49;9.36;84.34
78315;SHT31;67569;52.080;4.662;2023-02-04T13:21:34;9.36;84.40
78315;SHT31;67569;52.080;4.662;2023-02-04T13:24:18;9.33;84.98
78315;SHT31;67569;52.080;4.662;2023-02-04T13:30:24;9.42;84.68
78315;SHT31;67569;52.080;4.662;2023-02-04T13:33:08;9.44;83.54
78315;SHT31;67569;52.080;4.662;2023-02-04T13:35:52;9.44;84.05
78315;SHT31;67569;52.080;4.662;2023-02-04T13:38:36;9.50;84.13
78315;SHT31;67569;52.080;4.662;2023-02-04T13:41:20;9.53;84.24
78315;SHT31;67569;52.080;4.662;2023-02-04T13:44:04;9.57;83.80
78315;SHT31;67569;52.080;4.662;2023-02-04T13:46:51;9.58;83.38
78315;SHT31;67569;52.080;4.662;2023-02-04T13:49:35;9.63;83.72
78315;SHT31;67569;52.080;4.662;2023-02-04T13:52:21;9.64;83.69
78315;SHT31;67569;52.080;4.662;2023-02-04T13:55:40;9.61;83.99
78315;SHT31;67569;52.080;4.662;2023-02-04T13:58:24;9.64;83.44
78315;SHT31;67569;52.080;4.662;2023-02-04T14:01:12;9.67;83.58
78315;SHT31;67569;52.080;4.662;2023-02-04T14:03:57;9.66;83.21
78315;SHT31;67569;52.080;4.662;2023-02-04T14:06:41;9.66;83.81
78315;SHT31;67569;52.080;4.662;2023-02-04T14:09:33;9.61;83.26
78315;SHT31;67569;52.080;4.662;2023-02-04T14:12:17;9.63;83.64
78315;SHT31;67569;52.080;4.662;2023-02-04T14:15:01;9.66;83.74
78315;SHT31;67569;52.080;4.662;2023-02-04T14:17:54;9.66;83.53
78315;SHT31;67569;52.080;4.662;2023-02-04T14:20:39;9.66;83.35
78315;SHT31;67569;52.080;4.662;2023-02-04T14:23:48;9.67;83.26
78315;SHT31;67569;52.080;4.662;2023-02-04T14:26:31;9.71;83.19
78315;SHT31;67569;52.080;4.662;2023-02-04T14:29:17;9.71;83.26
78315;SHT31;67569;52.080;4.662;2023-02-04T14:32:13;9.73;83.47
78315;SHT31;67569;52.080;4.662;2023-02-04T14:34:57;9.74;83.27
78315;SHT31;67569;52.080;4.662;2023-02-04T14:37:41;9.74;83.44
78315;SHT31;67569;52.080;4.662;2023-02-04T14:40:26;9.78;83.39
78315;SHT31;67569;52.080;4.662;2023-02-04T14:43:10;9.75;83.67
78315;SHT31;67569;52.080;4.662;2023-02-04T14:45:53;9.78;83.67
78315;SHT31;67569;52.080;4.662;2023-02-04T14:48:37;9.75;83.58
78315;SHT31;67569;52.080;4.662;2023-02-04T14:51:22;9.74;83.70
78315;SHT31;67569;52.080;4.662;2023-02-04T14:54:06;9.73;83.69
78315;SHT31;67569;52.080;4.662;2023-02-04T14:56:50;9.74;83.64
78315;SHT31;67569;52.080;4.662;2023-02-04T14:59:34;9.75;83.85
78315;SHT31;67569;52.080;4.662;2023-02-04T15:02:18;9.75;83.45
78315;SHT31;67569;52.080;4.662;2023-02-04T15:05:02;9.74;83.59
78315;SHT31;67569;52.080;4.662;2023-02-04T15:07:46;9.77;83.70
78315;SHT31;67569;52.080;4.662;2023-02-04T15:10:30;9.75;83.35
78315;SHT31;67569;52.080;4.662;2023-02-04T15:13:14;9.74;83.51
78315;SHT31;67569;52.080;4.662;2023-02-04T15:15:58;9.73;83.50
78315;SHT31;67569;52.080;4.662;2023-02-04T15:18:42;9.70;83.53
78315;SHT31;67569;52.080;4.662;2023-02-04T15:21:26;9.67;83.89
78315;SHT31;67569;52.080;4.662;2023-02-04T15:24:10;9.66;83.50
78315;SHT31;67569;52.080;4.662;2023-02-04T15:26:54;9.69;83.70
78315;SHT31;67569;52.080;4.662;2023-02-04T15:29:37;9.64;83.62
78315;SHT31;67569;52.080;4.662;2023-02-04T15:32:21;9.63;83.96
78315;SHT31;67569;52.080;4.662;2023-02-04T15:35:05;9.61;83.61
78315;SHT31;67569;52.080;4.662;2023-02-04T15:37:50;9.60;83.78
78315;SHT31;67569;52.080;4.662;2023-02-04T15:40:34;9.58;84.03
78315;SHT31;67569;52.080;4.662;2023-02-04T15:43:18;9.60;83.87
78315;SHT31;67569;52.080;4.662;2023-02-04T15:46:02;9.60;84.14
78315;SHT31;67569;52.080;4.662;2023-02-04T15:48:46;9.61;84.07
78315;SHT31;67569;52.080;4.662;2023-02-04T15:51:31;9.63;83.86
78315;SHT31;67569;52.080;4.662;2023-02-04T15:54:15;9.61;83.66
78315;SHT31;67569;52.080;4.662;2023-02-04T15:56:59;9.60;83.68
78315;SHT31;67569;52.080;4.662;2023-02-04T15:59:44;9.58;84.19
78315;SHT31;67569;52.080;4.662;2023-02-04T16:02:28;9.61;84.17
78315;SHT31;67569;52.080;4.662;2023-02-04T16:05:12;9.60;83.85
78315;SHT31;67569;52.080;4.662;2023-02-04T16:07:56;9.56;83.91
78315;SHT31;67569;52.080;4.662;2023-02-04T16:10:40;9.57;84.15
78315;SHT31;67569;52.080;4.662;2023-02-04T16:13:24;9.54;84.26
78315;SHT31;67569;52.080;4.662;2023-02-04T16:16:08;9.53;84.15
78315;SHT31;67569;52.080;4.662;2023-02-04T16:18:52;9.53;84.27
78315;SHT31;67569;52.080;4.662;2023-02-04T16:21:36;9.53;84.36
78315;SHT31;67569;52.080;4.662;2023-02-04T16:24:20;9.53;84.34
78315;SHT31;67569;52.080;4.662;2023-02-04T16:27:04;9.53;84.36
78315;SHT31;67569;52.080;4.662;2023-02-04T16:29:48;9.51;84.15
78315;SHT31;67569;52.080;4.662;2023-02-04T16:32:33;9.51;84.58
78315;SHT31;67569;52.080;4.662;2023-02-04T16:35:16;9.51;84.34
78315;SHT31;67569;52.080;4.662;2023-02-04T16:38:01;9.51;84.47
78315;SHT31;67569;52.080;4.662;2023-02-04T16:40:44;9.50;84.53
78315;SHT31;67569;52.080;4.662;2023-02-04T16:43:29;9.53;84.46
78315;SHT31;67569;52.080;4.662;2023-02-04T16:46:12;9.50;84.53
78315;SHT31;67569;52.080;4.662;2023-02-04T16:48:58;9.50;84.26
78315;SHT31;67569;52.080;4.662;2023-02-04T16:51:42;9.50;84.46
78315;SHT31;67569;52.080;4.662;2023-02-04T16:54:26;9.50;84.36
78315;SHT31;67569;52.080;4.662;2023-02-04T16:57:11;9.48;84.37
78315;SHT31;67569;52.080;4.662;2023-02-04T16:59:56;9.47;84.21
78315;SHT31;67569;52.080;4.662;2023-02-04T17:02:41;9.47;84.35
78315;SHT31;67569;52.080;4.662;2023-02-04T17:05:25;9.47;84.52
78315;SHT31;67569;52.080;4.662;2023-02-04T17:08:09;9.44;84.44
78315;SHT31;67569;52.080;4.662;2023-02-04T17:10:53;9.44;84.48
78315;SHT31;67569;52.080;4.662;2023-02-04T17:13:57;9.46;84.44
78315;SHT31;67569;52.080;4.662;2023-02-04T17:16:44;9.43;84.48
78315;SHT31;67569;52.080;4.662;2023-02-04T17:19:28;9.42;84.24
78315;SHT31;67569;52.080;4.662;2023-02-04T17:22:12;9.43;84.42
78315;SHT31;67569;52.080;4.662;2023-02-04T17:24:56;9.43;84.40
78315;SHT31;67569;52.080;4.662;2023-02-04T17:27:40;9.43;84.48
78315;SHT31;67569;52.080;4.662;2023-02-04T17:30:24;9.43;84.45
78315;SHT31;67569;52.080;4.662;2023-02-04T17:33:08;9.40;84.45
78315;SHT31;67569;52.080;4.662;2023-02-04T17:35:52;9.39;84.66
78315;SHT31;67569;52.080;4.662;2023-02-04T17:38:38;9.39;84.71
78315;SHT31;67569;52.080;4.662;2023-02-04T17:41:23;9.40;84.79
78315;SHT31;67569;52.080;4.662;2023-02-04T17:44:07;9.36;84.91
78315;SHT31;67569;52.080;4.662;2023-02-04T17:46:50;9.37;85.00
78315;SHT31;67569;52.080;4.662;2023-02-04T17:49:35;9.37;85.03
78315;SHT31;67569;52.080;4.662;2023-02-04T17:52:18;9.35;85.08
78315;SHT31;67569;52.080;4.662;2023-02-04T17:55:17;9.36;85.05